Time;durP1;ratioP1;P1;durP2;ratioP2;P2;SDS_P1;SDS_P2;PMS_P1;PMS_P2;Temp;Humidity;BMP_temperature;BMP_pressure;BME280_temperature;BME280_humidity;BME280_pressure;Samples;Min_cycle;Max_cycle;Signal;HPM_P1;HPM_P2
2021/08/16 00:00:42;;;;;;;0.70;0.55;;;15.60;53.50;;;;;;5010869;28;20629;-57
2021/08/16 00:03:15;;;;;;;2.53;1.00;;;15.70;53.50;;;;;;5010779;28;20566;-48
2021/08/16 00:06:03;;;;;;;2.47;0.98;;;15.70;53.40;;;;;;5011198;28;20660;-53
2021/08/16 00:08:33;;;;;;;1.48;0.80;;;15.70;53.30;;;;;;5010277;28;20670;-55
2021/08/16 00:11:21;;;;;;;1.88;0.80;;;15.70;53.20;;;;;;5010736;28;20628;-53
2021/08/16 00:13:52;;;;;;;5.43;1.58;;;15.70;53.20;;;;;;5009849;28;20232;-53
2021/08/16 00:16:39;;;;;;;3.78;1.30;;;15.70;53.20;;;;;;5010633;28;20308;-55
2021/08/16 00:19:11;;;;;;;6.15;1.00;;;15.70;53.20;;;;;;5009816;28;20290;-55
2021/08/16 00:21:42;;;;;;;1.75;1.10;;;15.70;53.10;;;;;;5010323;28;20233;-53
2021/08/16 00:24:30;;;;;;;2.30;1.30;;;15.80;53.10;;;;;;4998480;28;20635;-51
2021/08/16 00:27:01;;;;;;;2.33;0.90;;;15.80;53.20;;;;;;5022118;28;20263;-49
2021/08/16 00:29:48;;;;;;;2.60;1.13;;;15.80;53.20;;;;;;5016863;28;20307;-55
2021/08/16 00:32:19;;;;;;;3.75;1.15;;;15.80;53.20;;;;;;5010273;28;20644;-51
2021/08/16 00:34:51;;;;;;;2.90;1.20;;;15.80;53.10;;;;;;5010191;28;20232;-56
2021/08/16 00:37:22;;;;;;;2.72;1.10;;;15.80;53.10;;;;;;5010198;28;20312;-51
2021/08/16 00:39:53;;;;;;;3.25;1.13;;;15.80;53.00;;;;;;5022868;28;20239;-55
2021/08/16 00:42:23;;;;;;;3.17;1.20;;;15.90;53.00;;;;;;5000930;28;20314;-53
2021/08/16 00:44:53;;;;;;;2.38;0.93;;;15.90;52.90;;;;;;5010636;28;20361;-50
2021/08/16 00:47:24;;;;;;;2.10;1.05;;;15.90;52.80;;;;;;5009748;28;20248;-51
2021/08/16 00:49:56;;;;;;;3.28;1.15;;;15.90;52.70;;;;;;5010486;28;20776;-48
2021/08/16 00:52:27;;;;;;;1.70;1.05;;;15.90;52.60;;;;;;5013805;28;20657;-54
2021/08/16 00:54:57;;;;;;;1.45;0.88;;;15.90;52.50;;;;;;5013973;28;20236;-56
2021/08/16 00:57:28;;;;;;;1.27;1.00;;;16.00;52.50;;;;;;5028794;28;20311;-48
2021/08/16 01:00:00;;;;;;;2.95;0.95;;;16.00;52.50;;;;;;5033733;28;20236;-51
2021/08/16 01:02:31;;;;;;;1.02;0.70;;;16.00;52.80;;;;;;5033511;28;20599;-53
2021/08/16 01:05:04;;;;;;;1.67;1.38;;;16.00;52.50;;;;;;5033973;28;20674;-54
2021/08/16 01:07:35;;;;;;;1.63;0.80;;;16.00;52.60;;;;;;5033233;28;20223;-56
2021/08/16 01:10:06;;;;;;;1.50;0.80;;;16.00;52.60;;;;;;5033060;28;20266;-49
2021/08/16 01:15:23;;;;;;;1.17;0.88;;;16.10;52.70;;;;;;5033631;28;20651;-56
2021/08/16 01:17:53;;;;;;;1.50;0.95;;;16.10;52.60;;;;;;5033218;28;20248;-54
2021/08/16 01:20:25;;;;;;;1.65;0.70;;;16.10;52.50;;;;;;5033198;28;20228;-54
2021/08/16 01:22:56;;;;;;;0.73;0.70;;;16.20;52.40;;;;;;5033178;28;20283;-52
2021/08/16 01:28:32;;;;;;;1.50;0.80;;;16.20;52.40;;;;;;5033064;28;20273;-53
2021/08/16 01:31:03;;;;;;;1.10;0.63;;;16.30;52.30;;;;;;5032109;28;20747;-54
2021/08/16 01:33:33;;;;;;;0.85;0.77;;;16.30;52.00;;;;;;5032840;28;20287;-53
2021/08/16 01:36:04;;;;;;;1.20;0.73;;;16.30;52.00;;;;;;5032238;28;20258;-53
2021/08/16 01:38:35;;;;;;;1.20;0.60;;;16.30;51.90;;;;;;5033541;28;20232;-54
2021/08/16 01:41:05;;;;;;;0.88;0.60;;;16.40;51.70;;;;;;5033459;28;20231;-54
2021/08/16 01:43:37;;;;;;;1.52;0.60;;;16.40;51.70;;;;;;5032953;28;20232;-50
2021/08/16 01:46:26;;;;;;;1.30;0.90;;;16.40;51.70;;;;;;5033546;28;20308;-53
2021/08/16 01:48:57;;;;;;;1.13;0.70;;;16.40;51.70;;;;;;5032171;28;20197;-53
2021/08/16 01:51:27;;;;;;;1.30;0.60;;;16.50;51.70;;;;;;5032669;28;20259;-55
2021/08/16 01:54:15;;;;;;;0.80;0.50;;;16.50;51.50;;;;;;5031889;28;20224;-53
2021/08/16 01:56:46;;;;;;;1.35;0.50;;;16.50;51.50;;;;;;5032474;28;20251;-56
2021/08/16 01:59:18;;;;;;;1.85;0.50;;;16.50;51.40;;;;;;5032968;28;20228;-54
2021/08/16 02:01:48;;;;;;;0.68;0.50;;;16.60;51.20;;;;;;5031698;28;20283;-53
2021/08/16 02:04:19;;;;;;;1.05;0.40;;;16.60;51.00;;;;;;5032300;28;20231;-51
2021/08/16 02:09:53;;;;;;;1.45;0.40;;;16.60;51.00;;;;;;5031495;28;20269;-50
2021/08/16 02:12:23;;;;;;;1.00;0.50;;;16.60;51.00;;;;;;5032351;28;20675;-51
2021/08/16 02:14:55;;;;;;;0.40;0.40;;;16.60;50.80;;;;;;5032076;28;20235;-54
2021/08/16 02:17:26;;;;;;;0.40;0.40;;;16.70;50.90;;;;;;5016280;28;20303;-51
2021/08/16 02:19:56;;;;;;;0.75;0.47;;;16.70;50.80;;;;;;5012851;28;20240;-57
2021/08/16 02:22:27;;;;;;;1.00;0.30;;;16.70;50.90;;;;;;5012184;28;20292;-51
2021/08/16 02:25:14;;;;;;;0.80;0.55;;;16.70;50.90;;;;;;5012557;28;20228;-55
2021/08/16 02:27:48;;;;;;;0.40;0.40;;;16.70;51.00;;;;;;5026925;28;20260;-55
2021/08/16 02:30:21;;;;;;;2.05;0.50;;;16.70;51.00;;;;;;5012137;28;20770;-52
2021/08/16 02:32:51;;;;;;;0.93;0.47;;;16.70;50.90;;;;;;5011748;28;20205;-51
2021/08/16 02:35:22;;;;;;;0.82;0.40;;;16.80;51.00;;;;;;5011719;28;20283;-57
2021/08/16 02:37:52;;;;;;;0.80;0.63;;;16.80;51.60;;;;;;5012694;28;20299;-55
2021/08/16 02:40:40;;;;;;;0.50;0.50;;;16.80;51.00;;;;;;5011971;28;20665;-54
2021/08/16 02:43:11;;;;;;;0.30;0.30;;;16.80;50.90;;;;;;5012637;28;20250;-53
2021/08/16 02:45:43;;;;;;;0.60;0.60;;;16.80;50.90;;;;;;5011741;28;20236;-54
2021/08/16 02:48:13;;;;;;;0.47;0.47;;;16.80;50.80;;;;;;5011683;28;20229;-50
2021/08/16 02:50:44;;;;;;;0.85;0.40;;;16.90;50.70;;;;;;5012302;28;20268;-52
2021/08/16 02:53:32;;;;;;;0.60;0.47;;;16.90;50.60;;;;;;5011226;28;20236;-52
2021/08/16 02:56:02;;;;;;;0.40;0.40;;;16.90;50.50;;;;;;5015342;28;20286;-56
2021/08/16 03:01:21;;;;;;;0.85;0.40;;;16.90;50.50;;;;;;5030978;28;20249;-55
2021/08/16 03:03:51;;;;;;;0.43;0.43;;;16.90;50.50;;;;;;4998953;28;20603;-55
2021/08/16 03:06:22;;;;;;;0.40;0.40;;;16.90;50.60;;;;;;4992389;28;20257;-51
2021/08/16 03:08:53;;;;;;;0.75;0.40;;;17.00;50.70;;;;;;4991882;28;20197;-54
2021/08/16 03:11:23;;;;;;;0.68;0.50;;;16.90;50.70;;;;;;4992495;28;20659;-52
2021/08/16 03:13:53;;;;;;;0.50;0.50;;;16.90;50.80;;;;;;4992095;28;20268;-55
2021/08/16 03:16:26;;;;;;;0.50;0.38;;;17.00;50.90;;;;;;4992172;28;20705;-53
2021/08/16 03:18:56;;;;;;;0.47;0.47;;;17.00;51.00;;;;;;4992443;28;20654;-54
2021/08/16 03:21:44;;;;;;;0.40;0.40;;;17.00;51.10;;;;;;4992069;28;20261;-50
2021/08/16 03:24:14;;;;;;;0.40;0.40;;;17.00;51.10;;;;;;4991535;28;20229;-50
2021/08/16 03:26:45;;;;;;;0.60;0.40;;;17.00;51.10;;;;;;5010586;28;20627;-51
2021/08/16 03:29:15;;;;;;;0.52;0.52;;;17.10;51.20;;;;;;5031561;28;20679;-52
2021/08/16 03:31:48;;;;;;;0.55;0.55;;;17.10;51.30;;;;;;5031483;28;20270;-53
2021/08/16 03:34:18;;;;;;;1.35;0.50;;;17.10;51.30;;;;;;5031582;28;20228;-49
2021/08/16 03:36:48;;;;;;;0.40;0.40;;;17.10;51.50;;;;;;5024885;28;20259;-54
2021/08/16 03:39:19;;;;;;;0.40;0.40;;;17.20;51.40;;;;;;5010427;28;20656;-56
2021/08/16 03:41:49;;;;;;;0.73;0.40;;;17.20;51.40;;;;;;5010815;28;20243;-52
2021/08/16 03:44:20;;;;;;;0.40;0.40;;;17.20;51.40;;;;;;5010920;28;20200;-52
2021/08/16 03:46:52;;;;;;;0.63;0.40;;;17.30;51.40;;;;;;5009648;28;20903;-49
2021/08/16 03:49:22;;;;;;;0.57;0.57;;;17.30;51.40;;;;;;5010989;28;20228;-53
2021/08/16 03:54:57;;;;;;;0.30;0.30;;;17.40;51.50;;;;;;5010197;28;20683;-51
2021/08/16 03:57:28;;;;;;;0.30;0.30;;;17.50;51.50;;;;;;5010969;28;20267;-56
2021/08/16 03:59:58;;;;;;;0.88;0.30;;;17.50;51.30;;;;;;5010875;28;20287;-52
2021/08/16 04:02:48;;;;;;;0.40;0.40;;;17.50;51.30;;;;;;5011302;28;20232;-53
2021/08/16 04:05:18;;;;;;;0.50;0.43;;;17.60;51.40;;;;;;5010425;28;20251;-54
2021/08/16 04:07:49;;;;;;;0.43;0.43;;;17.60;51.30;;;;;;5010705;28;20635;-54
2021/08/16 04:10:19;;;;;;;0.30;0.30;;;17.60;51.30;;;;;;5010403;28;20246;-53
2021/08/16 04:12:50;;;;;;;0.30;0.30;;;17.70;51.30;;;;;;5010721;28;20283;-54
2021/08/16 04:15:21;;;;;;;0.38;0.35;;;17.70;51.30;;;;;;5010682;28;20288;-47
2021/08/16 04:17:53;;;;;;;0.40;0.40;;;17.70;51.30;;;;;;5010712;28;20226;-49
2021/08/16 04:20:41;;;;;;;0.38;0.30;;;17.80;51.30;;;;;;5010653;28;20243;-53
2021/08/16 04:23:11;;;;;;;0.50;0.40;;;17.80;51.40;;;;;;5011135;28;20228;-48
2021/08/16 04:25:42;;;;;;;1.05;0.30;;;17.90;51.30;;;;;;5012415;28;20189;-49
2021/08/16 04:28:12;;;;;;;0.35;0.35;;;17.90;51.20;;;;;;5028336;28;20632;-52
2021/08/16 04:30:43;;;;;;;0.35;0.35;;;17.90;51.20;;;;;;5015246;28;20712;-52
2021/08/16 04:33:15;;;;;;;0.40;0.40;;;18.00;51.20;;;;;;5014089;28;20711;-47
2021/08/16 04:35:45;;;;;;;0.40;0.40;;;18.00;51.00;;;;;;5014485;28;20225;-50
2021/08/16 04:38:19;;;;;;;0.40;0.40;;;18.00;51.00;;;;;;5009213;28;20280;-51
2021/08/16 04:40:49;;;;;;;0.32;0.32;;;18.00;51.00;;;;;;5014488;28;20659;-54
2021/08/16 04:43:20;;;;;;;1.55;0.30;;;18.10;51.00;;;;;;5014758;28;20236;-55
2021/08/16 04:45:50;;;;;;;0.50;0.50;;;18.10;51.00;;;;;;5014773;28;20232;-48
2021/08/16 04:48:22;;;;;;;0.70;0.50;;;18.10;51.00;;;;;;5013592;28;20229;-50
2021/08/16 04:50:53;;;;;;;1.02;0.30;;;18.20;51.00;;;;;;5013904;28;20260;-49
2021/08/16 04:53:23;;;;;;;0.40;0.40;;;18.20;50.90;;;;;;5013517;28;20721;-48
2021/08/16 04:55:54;;;;;;;0.35;0.35;;;18.20;50.60;;;;;;5014015;28;20665;-53
2021/08/16 04:58:24;;;;;;;1.73;0.38;;;18.20;50.50;;;;;;5013692;28;20232;-50
2021/08/16 05:00:54;;;;;;;0.28;0.28;;;18.20;50.50;;;;;;5014247;28;20287;-49
2021/08/16 05:03:27;;;;;;;0.95;0.40;;;18.30;50.40;;;;;;5014263;28;20197;-54
2021/08/16 05:06:04;;;;;;;1.52;0.65;;;18.30;50.40;;;;;;5013444;28;20232;-53
2021/08/16 05:08:35;;;;;;;0.95;0.40;;;18.30;50.40;;;;;;5014409;28;20293;-51
2021/08/16 05:11:06;;;;;;;0.52;0.40;;;18.30;50.20;;;;;;5013992;28;20613;-51
2021/08/16 05:13:36;;;;;;;0.30;0.30;;;18.30;50.10;;;;;;5014086;28;20237;-52
2021/08/16 05:16:07;;;;;;;0.30;0.30;;;18.30;50.00;;;;;;5012873;28;20658;-52
2021/08/16 05:18:40;;;;;;;0.98;0.30;;;18.40;49.90;;;;;;5013674;28;20699;-53
2021/08/16 05:21:10;;;;;;;0.40;0.30;;;18.30;49.50;;;;;;5012626;28;20292;-53
2021/08/16 05:23:40;;;;;;;1.15;0.30;;;18.40;49.50;;;;;;5013199;28;20228;-54
2021/08/16 05:26:11;;;;;;;0.22;0.22;;;18.30;49.40;;;;;;5013326;28;20282;-47
2021/08/16 05:28:41;;;;;;;0.82;0.30;;;18.30;49.30;;;;;;5013194;28;20251;-50
2021/08/16 05:31:12;;;;;;;0.40;0.40;;;18.30;49.20;;;;;;5030418;28;20658;-48
2021/08/16 05:33:44;;;;;;;0.35;0.35;;;18.30;49.10;;;;;;5032613;28;20232;-52
2021/08/16 05:36:14;;;;;;;1.27;0.32;;;18.30;49.10;;;;;;5031735;28;20722;-48
2021/08/16 05:38:45;;;;;;;2.08;0.40;;;18.30;49.10;;;;;;5032107;28;20653;-50
2021/08/16 05:41:33;;;;;;;0.38;0.35;;;18.30;49.10;;;;;;5032571;28;20252;-49
2021/08/16 05:44:03;;;;;;;0.40;0.40;;;18.30;48.90;;;;;;5032625;28;21120;-48
2021/08/16 05:46:34;;;;;;;0.90;0.60;;;18.30;49.00;;;;;;5032657;28;20255;-51
2021/08/16 05:49:07;;;;;;;0.95;0.70;;;18.30;47.90;;;;;;5032143;28;20664;-52
2021/08/16 05:51:37;;;;;;;0.50;0.50;;;18.20;47.20;;;;;;5032543;28;20239;-52
2021/08/16 05:54:07;;;;;;;2.15;0.50;;;18.20;47.10;;;;;;5032368;28;20231;-51
2021/08/16 05:56:38;;;;;;;0.40;0.40;;;18.10;47.30;;;;;;5032920;28;20782;-50
2021/08/16 05:59:08;;;;;;;0.50;0.50;;;18.10;47.30;;;;;;5033234;28;20260;-54
2021/08/16 06:01:40;;;;;;;1.25;0.60;;;18.10;47.40;;;;;;5032137;28;20258;-50
2021/08/16 06:04:12;;;;;;;0.93;0.50;;;18.10;47.40;;;;;;5032490;28;20196;-47
2021/08/16 06:06:43;;;;;;;0.95;0.55;;;18.10;47.60;;;;;;5032799;28;20248;-49
2021/08/16 06:09:13;;;;;;;1.17;0.60;;;18.10;47.70;;;;;;5032917;28;20350;-50
2021/08/16 06:11:44;;;;;;;1.33;0.63;;;18.00;47.80;;;;;;5032821;28;20654;-50
2021/08/16 06:14:14;;;;;;;1.90;0.60;;;18.00;47.90;;;;;;4999161;28;20233;-49
2021/08/16 06:16:44;;;;;;;0.50;0.50;;;18.00;48.10;;;;;;4992252;28;20312;-48
2021/08/16 06:19:17;;;;;;;0.57;0.57;;;18.00;48.30;;;;;;5009391;28;20224;-49
2021/08/16 06:21:47;;;;;;;0.85;0.50;;;18.00;48.40;;;;;;5012521;28;20239;-50
2021/08/16 06:27:04;;;;;;;0.73;0.60;;;18.00;48.60;;;;;;5012624;28;20228;-49
2021/08/16 06:29:34;;;;;;;0.70;0.63;;;17.90;48.60;;;;;;5012547;28;20694;-50
2021/08/16 06:32:05;;;;;;;1.83;0.70;;;17.90;48.60;;;;;;5011538;28;20312;-47
2021/08/16 06:34:40;;;;;;;1.60;0.70;;;17.90;48.70;;;;;;5012304;28;20224;-49
2021/08/16 06:37:11;;;;;;;0.80;0.60;;;17.90;48.70;;;;;;5012228;28;20523;-51
2021/08/16 06:39:41;;;;;;;0.50;0.50;;;17.90;48.80;;;;;;5011722;28;20188;-52
2021/08/16 06:42:12;;;;;;;1.08;0.57;;;17.90;48.90;;;;;;5012804;28;20296;-48
2021/08/16 06:44:42;;;;;;;0.85;0.63;;;17.90;49.00;;;;;;5012503;28;20239;-50
2021/08/16 06:50:00;;;;;;;0.95;0.60;;;17.80;49.10;;;;;;5011082;28;20212;-51
2021/08/16 06:52:31;;;;;;;0.60;0.50;;;17.80;49.30;;;;;;5012241;28;20263;-53
2021/08/16 06:55:03;;;;;;;0.50;0.50;;;17.80;49.50;;;;;;5011597;28;20328;-51
2021/08/16 06:57:35;;;;;;;0.50;0.50;;;17.80;49.50;;;;;;5027662;28;20220;-53
2021/08/16 07:00:05;;;;;;;0.93;0.70;;;17.80;49.60;;;;;;5031550;28;20232;-48
2021/08/16 07:05:24;;;;;;;0.50;0.50;;;17.80;49.70;;;;;;5031698;28;20203;-53
2021/08/16 07:10:59;;;;;;;0.82;0.73;;;17.70;49.90;;;;;;5031387;28;20733;-50
2021/08/16 07:13:29;;;;;;;0.75;0.68;;;17.70;49.90;;;;;;5030775;28;20235;-53
2021/08/16 07:16:00;;;;;;;0.90;0.70;;;17.70;50.00;;;;;;5030499;28;20231;-53
2021/08/16 07:18:30;;;;;;;1.38;0.60;;;17.70;50.10;;;;;;5030621;28;20235;-51
2021/08/16 07:21:20;;;;;;;0.90;0.80;;;17.70;50.20;;;;;;5021201;28;20228;-49
2021/08/16 07:23:50;;;;;;;0.50;0.50;;;17.70;50.20;;;;;;5011457;28;20240;-53
2021/08/16 07:26:21;;;;;;;0.65;0.65;;;17.70;50.30;;;;;;5017566;28;20220;-52
2021/08/16 07:28:51;;;;;;;1.52;0.65;;;17.70;50.30;;;;;;5031331;28;20253;-53
2021/08/16 07:34:08;;;;;;;1.40;0.70;;;17.70;50.40;;;;;;5031350;28;20207;-53
2021/08/16 07:36:40;;;;;;;0.93;0.60;;;17.60;50.40;;;;;;5031212;28;20243;-55
2021/08/16 07:39:10;;;;;;;1.15;0.70;;;17.60;50.40;;;;;;5031270;28;20232;-53
2021/08/16 07:41:41;;;;;;;1.60;0.70;;;17.60;50.50;;;;;;5031474;28;20251;-53
2021/08/16 07:46:59;;;;;;;0.68;0.68;;;17.60;50.40;;;;;;5030947;28;20362;-52
2021/08/16 07:49:47;;;;;;;1.00;0.60;;;17.60;50.50;;;;;;5030806;28;20703;-51
2021/08/16 07:52:19;;;;;;;0.75;0.60;;;17.60;50.60;;;;;;5030944;28;20263;-51
2021/08/16 07:54:50;;;;;;;0.55;0.55;;;17.60;50.70;;;;;;5031135;28;20239;-50
2021/08/16 07:57:20;;;;;;;1.17;0.45;;;17.60;50.70;;;;;;5030855;28;20259;-51
2021/08/16 07:59:53;;;;;;;0.60;0.60;;;17.50;50.60;;;;;;5030302;28;20235;-54
2021/08/16 08:02:23;;;;;;;1.35;0.80;;;17.50;50.60;;;;;;5031275;28;20193;-53
2021/08/16 08:04:54;;;;;;;0.80;0.80;;;17.50;50.60;;;;;;5031013;28;20235;-52
2021/08/16 08:07:26;;;;;;;1.10;0.90;;;17.50;50.50;;;;;;5030925;28;20302;-52
2021/08/16 08:09:56;;;;;;;0.90;0.70;;;17.50;50.50;;;;;;5030699;28;20232;-50
2021/08/16 08:12:27;;;;;;;1.55;0.90;;;17.50;50.60;;;;;;5031314;28;20264;-47
2021/08/16 08:14:57;;;;;;;8.02;7.05;;;17.50;50.70;;;;;;5030850;28;20196;-46
2021/08/16 08:17:28;;;;;;;5.18;4.68;;;17.50;49.40;;;;;;5030632;28;20251;-58
2021/08/16 08:20:16;;;;;;;4.50;4.10;;;17.40;48.30;;;;;;5030988;28;20227;-55
2021/08/16 08:22:48;;;;;;;4.78;4.35;;;17.40;48.10;;;;;;5030385;28;20204;-51
2021/08/16 08:25:18;;;;;;;4.30;3.88;;;17.40;47.90;;;;;;5014217;28;20228;-54
2021/08/16 08:27:49;;;;;;;4.93;3.78;;;17.40;47.90;;;;;;5025566;28;20260;-52
2021/08/16 08:30:19;;;;;;;3.78;3.47;;;17.30;48.10;;;;;;5011292;28;20228;-55
2021/08/16 08:32:50;;;;;;;4.20;3.80;;;17.30;48.40;;;;;;5011309;28;20267;-52
2021/08/16 08:35:21;;;;;;;4.05;3.65;;;17.30;48.20;;;;;;5011438;28;20628;-55
2021/08/16 08:37:53;;;;;;;3.88;3.45;;;17.30;48.40;;;;;;5011445;28;20723;-53
2021/08/16 08:40:23;;;;;;;4.35;3.95;;;17.30;48.40;;;;;;5010823;28;20641;-54
2021/08/16 08:42:55;;;;;;;3.78;3.35;;;17.30;48.50;;;;;;5011080;28;20236;-51
2021/08/16 08:45:26;;;;;;;3.60;3.30;;;17.30;48.50;;;;;;5010838;28;20255;-51
2021/08/16 08:47:56;;;;;;;3.50;3.20;;;17.30;48.60;;;;;;5011050;28;20267;-53
2021/08/16 08:50:27;;;;;;;3.40;3.10;;;17.30;48.70;;;;;;5011213;28;20237;-50
2021/08/16 08:53:00;;;;;;;3.60;3.30;;;17.20;48.70;;;;;;5011613;28;20260;-49
2021/08/16 08:55:31;;;;;;;3.17;2.88;;;17.20;48.80;;;;;;5010957;28;20288;-50
2021/08/16 08:58:02;;;;;;;3.35;3.03;;;17.20;48.90;;;;;;5030984;28;20291;-49
2021/08/16 09:00:33;;;;;;;2.72;2.53;;;17.20;48.90;;;;;;5007682;28;20201;-54
2021/08/16 09:03:21;;;;;;;3.78;2.90;;;17.20;49.10;;;;;;5011373;28;20658;-49
2021/08/16 09:05:52;;;;;;;4.63;2.78;;;17.20;49.20;;;;;;5010110;28;20239;-50
2021/08/16 09:08:31;;;;;;;3.75;2.92;;;17.20;49.20;;;;;;5010623;28;20238;-50
2021/08/16 09:11:11;;;;;;;3.05;2.42;;;17.20;49.20;;;;;;5010859;28;20232;-48
2021/08/16 09:13:50;;;;;;;2.58;2.28;;;17.20;49.40;;;;;;5014244;28;20716;-48
2021/08/16 09:16:21;;;;;;;2.83;2.40;;;17.20;49.50;;;;;;5012814;28;20221;-50
2021/08/16 09:18:51;;;;;;;2.40;2.20;;;17.20;49.70;;;;;;5013246;28;20224;-51
2021/08/16 09:21:47;;;;;;;2.53;2.30;;;17.20;49.80;;;;;;5013119;28;20232;-52
2021/08/16 09:24:25;;;;;;;2.40;2.20;;;17.20;49.80;;;;;;5012523;28;20217;-54
2021/08/16 09:26:56;;;;;;;2.80;2.38;;;17.20;49.90;;;;;;5032990;28;20459;-53
2021/08/16 09:29:26;;;;;;;1.80;1.70;;;17.20;49.90;;;;;;5032912;28;20235;-54
2021/08/16 09:32:01;;;;;;;2.00;1.80;;;17.10;49.90;;;;;;5033407;28;20624;-54
2021/08/16 09:34:33;;;;;;;2.35;2.15;;;17.10;49.90;;;;;;5032221;28;20316;-55
2021/08/16 09:37:04;;;;;;;1.75;1.65;;;17.10;50.10;;;;;;4993507;28;20751;-52
2021/08/16 09:39:36;;;;;;;2.10;1.90;;;17.10;50.20;;;;;;4992880;28;20641;-49
2021/08/16 09:42:07;;;;;;;1.48;1.35;;;17.10;50.20;;;;;;5026072;28;20647;-49
2021/08/16 09:44:57;;;;;;;1.50;1.40;;;17.10;50.30;;;;;;5032850;28;20239;-51
2021/08/16 09:47:27;;;;;;;1.52;1.40;;;17.10;50.40;;;;;;5032784;28;20220;-56
2021/08/16 09:50:02;;;;;;;1.42;1.33;;;17.10;50.50;;;;;;5032883;28;20228;-53
2021/08/16 09:52:33;;;;;;;1.77;1.30;;;17.10;50.70;;;;;;5016198;28;20592;-55
2021/08/16 09:57:52;;;;;;;1.30;1.20;;;17.20;51.00;;;;;;5012662;28;20653;-52
2021/08/16 10:03:11;;;;;;;2.30;1.42;;;17.20;51.10;;;;;;5012603;28;20196;-50
2021/08/16 10:05:42;;;;;;;3.97;1.75;;;17.20;51.10;;;;;;5013310;28;20665;-50
2021/08/16 10:08:30;;;;;;;4.55;2.00;;;17.20;51.20;;;;;;5012631;28;20247;-51
2021/08/16 10:11:36;;;;;;;8.15;2.58;;;17.20;51.20;;;;;;5013391;28;20735;-52
2021/08/16 10:14:08;;;;;;;5.88;2.75;;;17.20;51.40;;;;;;5011983;28;20332;-49
2021/08/16 10:16:41;;;;;;;5.68;2.17;;;17.20;51.40;;;;;;5012521;28;20271;-52
2021/08/16 10:19:12;;;;;;;5.22;2.72;;;17.20;51.40;;;;;;5011836;28;20197;-53
2021/08/16 10:21:42;;;;;;;8.57;3.47;;;17.20;51.50;;;;;;5011838;28;20185;-51
2021/08/16 10:24:36;;;;;;;4.85;2.50;;;17.10;51.60;;;;;;5011523;28;20243;-49
2021/08/16 10:27:08;;;;;;;6.30;2.75;;;17.10;51.60;;;;;;5024800;28;20311;-49
2021/08/16 10:29:41;;;;;;;6.65;2.80;;;17.10;51.70;;;;;;5031417;28;20239;-52
2021/08/16 10:32:19;;;;;;;8.00;2.97;;;17.10;51.80;;;;;;5032336;28;20238;-52
2021/08/16 10:34:49;;;;;;;11.13;3.08;;;17.10;51.80;;;;;;5017420;28;20197;-48
2021/08/16 10:37:20;;;;;;;11.73;2.88;;;17.10;51.90;;;;;;5015961;28;20299;-52
2021/08/16 10:39:54;;;;;;;11.77;3.10;;;17.10;51.90;;;;;;5031176;28;20231;-52
2021/08/16 10:42:33;;;;;;;7.68;2.80;;;17.10;52.00;;;;;;5031741;28;20628;-53
2021/08/16 10:45:07;;;;;;;10.48;2.85;;;17.10;52.00;;;;;;5032160;28;20446;-50
2021/08/16 10:48:01;;;;;;;9.85;3.10;;;17.10;52.10;;;;;;5015723;28;20233;-52
2021/08/16 10:50:32;;;;;;;8.85;3.05;;;17.10;52.20;;;;;;4991977;28;20198;-50
2021/08/16 10:56:10;;;;;;;7.15;2.92;;;17.00;52.20;;;;;;4997135;28;20204;-51
2021/08/16 10:58:40;;;;;;;8.98;3.00;;;17.00;52.30;;;;;;5031069;28;20275;-52
2021/08/16 11:04:17;;;;;;;10.95;3.85;;;17.00;52.30;;;;;;5030501;28;20566;-51
2021/08/16 11:06:59;;;;;;;7.35;2.95;;;17.00;52.40;;;;;;5031455;28;20583;-51
2021/08/16 11:09:56;;;;;;;7.78;2.53;;;16.90;52.40;;;;;;5031011;28;20261;-52
2021/08/16 11:12:34;;;;;;;7.50;3.22;;;16.90;52.50;;;;;;5031448;28;20236;-54
2021/08/16 11:15:06;;;;;;;10.63;2.53;;;16.90;52.50;;;;;;5030916;28;20375;-52
2021/08/16 11:17:56;;;;;;;6.18;2.60;;;16.90;52.50;;;;;;5030860;28;20255;-53
2021/08/16 11:20:26;;;;;;;8.45;2.78;;;16.90;52.70;;;;;;5030920;28;20204;-54
2021/08/16 11:22:57;;;;;;;6.07;2.70;;;16.90;53.30;;;;;;5031645;28;20282;-51
2021/08/16 11:25:27;;;;;;;4.35;2.55;;;16.90;52.70;;;;;;5030161;28;20228;-51
2021/08/16 11:28:01;;;;;;;5.82;2.47;;;16.80;52.70;;;;;;5030996;28;20259;-48
2021/08/16 11:30:32;;;;;;;6.75;2.60;;;16.80;52.80;;;;;;5031071;28;20231;-49
2021/08/16 11:33:29;;;;;;;4.78;2.28;;;16.80;52.90;;;;;;5031554;28;20259;-49
2021/08/16 11:36:09;;;;;;;4.95;2.08;;;16.80;53.00;;;;;;5030815;28;20199;-51
2021/08/16 11:38:57;;;;;;;8.65;2.50;;;16.80;52.90;;;;;;5010196;28;20225;-51
2021/08/16 11:41:32;;;;;;;5.13;2.20;;;16.70;52.90;;;;;;5011185;28;20292;-50
2021/08/16 11:44:13;;;;;;;5.50;2.10;;;16.70;53.00;;;;;;5011595;28;20192;-50
2021/08/16 11:46:43;;;;;;;3.90;1.90;;;16.70;53.00;;;;;;5011841;28;20252;-47
2021/08/16 11:49:16;;;;;;;6.15;2.45;;;16.70;53.00;;;;;;5011164;28;20335;-50
2021/08/16 11:51:46;;;;;;;5.57;2.13;;;16.70;53.10;;;;;;5011713;28;20283;-50
2021/08/16 11:54:30;;;;;;;6.88;2.47;;;16.70;53.10;;;;;;5011727;28;20319;-51
2021/08/16 11:57:01;;;;;;;3.28;2.13;;;16.70;53.20;;;;;;5022794;28;20255;-49
2021/08/16 11:59:31;;;;;;;6.28;2.53;;;16.60;53.10;;;;;;5031214;28;20287;-50
2021/08/16 12:04:52;;;;;;;4.38;2.00;;;16.70;53.20;;;;;;5031188;28;20572;-49
2021/08/16 12:10:18;;;;;;;5.05;2.05;;;16.60;53.30;;;;;;5031023;28;20335;-50
2021/08/16 12:12:58;;;;;;;3.15;2.15;;;16.60;53.30;;;;;;5002454;28;20205;-50
2021/08/16 12:15:29;;;;;;;4.53;2.47;;;16.60;53.30;;;;;;4991784;28;20209;-52
2021/08/16 12:18:07;;;;;;;4.25;1.98;;;16.50;53.30;;;;;;4991417;28;20301;-48
2021/08/16 12:20:47;;;;;;;4.95;1.88;;;16.60;53.40;;;;;;4991489;28;20279;-51
2021/08/16 12:23:27;;;;;;;4.15;1.63;;;16.50;53.40;;;;;;4991979;28;20200;-49
2021/08/16 12:25:57;;;;;;;4.43;2.05;;;16.50;53.40;;;;;;4997739;28;20228;-49
2021/08/16 12:28:39;;;;;;;3.53;1.60;;;16.50;53.40;;;;;;5013199;28;20836;-48
2021/08/16 12:31:16;;;;;;;3.45;1.90;;;16.50;53.50;;;;;;5010069;28;20628;-48
2021/08/16 12:34:16;;;;;;;3.63;1.80;;;16.50;53.50;;;;;;5010832;28;20266;-49
2021/08/16 12:36:56;;;;;;;3.83;1.92;;;16.50;53.50;;;;;;5010852;28;20267;-48
2021/08/16 12:39:44;;;;;;;3.55;1.77;;;16.50;53.50;;;;;;5010693;28;20236;-50
2021/08/16 12:42:16;;;;;;;2.67;1.60;;;16.40;53.50;;;;;;5010931;28;20239;-48
2021/08/16 12:44:53;;;;;;;3.95;1.80;;;16.40;53.60;;;;;;5011364;28;20353;-51
2021/08/16 12:47:33;;;;;;;3.08;1.98;;;16.40;53.60;;;;;;5013848;28;20711;-47
2021/08/16 12:50:03;;;;;;;2.47;1.50;;;16.40;53.60;;;;;;5014574;28;20207;-48
2021/08/16 12:52:36;;;;;;;2.42;1.52;;;16.40;53.60;;;;;;5014483;28;20232;-51
2021/08/16 12:55:07;;;;;;;2.88;1.73;;;16.40;53.60;;;;;;5014526;28;20318;-50
2021/08/16 12:57:38;;;;;;;2.03;1.38;;;16.40;53.60;;;;;;5031273;28;20307;-48
2021/08/16 13:00:09;;;;;;;2.00;1.48;;;16.30;53.60;;;;;;5034375;28;20227;-49
2021/08/16 13:02:41;;;;;;;3.22;1.30;;;16.30;53.60;;;;;;5034388;28;20667;-47
2021/08/16 13:05:12;;;;;;;4.20;1.92;;;16.30;53.70;;;;;;5034109;28;20239;-52
2021/08/16 13:07:44;;;;;;;2.00;1.27;;;16.30;53.70;;;;;;5034072;28;20254;-50
2021/08/16 13:10:15;;;;;;;2.72;1.38;;;16.30;53.70;;;;;;5034018;28;20200;-49
2021/08/16 13:12:45;;;;;;;2.65;1.55;;;16.20;53.70;;;;;;5034374;28;20235;-48
2021/08/16 13:15:33;;;;;;;1.92;1.15;;;16.20;53.70;;;;;;5034117;28;20228;-47
2021/08/16 13:18:03;;;;;;;1.73;1.20;;;16.20;53.70;;;;;;5034114;28;20247;-48
2021/08/16 13:20:33;;;;;;;2.83;1.33;;;16.20;53.70;;;;;;5034215;28;20192;-51
2021/08/16 13:23:11;;;;;;;2.65;1.30;;;16.20;53.80;;;;;;5033945;28;20227;-50
2021/08/16 13:25:42;;;;;;;2.13;1.30;;;16.20;53.80;;;;;;5033774;28;20196;-50
2021/08/16 13:28:12;;;;;;;3.80;1.48;;;16.20;53.80;;;;;;5033669;28;20607;-49
2021/08/16 13:30:42;;;;;;;3.38;1.45;;;16.20;53.80;;;;;;5033253;28;20919;-52
2021/08/16 13:33:13;;;;;;;1.80;1.05;;;16.20;53.80;;;;;;5033085;28;20243;-51
2021/08/16 13:36:01;;;;;;;2.13;1.08;;;16.20;53.80;;;;;;5033677;28;20297;-48
2021/08/16 13:38:33;;;;;;;1.95;1.38;;;16.10;53.80;;;;;;5034275;28;20294;-50
2021/08/16 13:41:03;;;;;;;1.52;1.13;;;16.10;53.80;;;;;;5033892;28;20254;-50
2021/08/16 13:43:35;;;;;;;2.08;1.27;;;16.10;53.80;;;;;;5033679;28;20224;-51
2021/08/16 13:46:05;;;;;;;2.00;1.20;;;16.10;53.90;;;;;;5033583;28;20654;-53
2021/08/16 13:48:36;;;;;;;2.03;1.20;;;16.10;53.90;;;;;;5033275;28;20712;-50
2021/08/16 13:51:06;;;;;;;1.77;0.85;;;16.10;53.90;;;;;;5033413;28;20232;-48
2021/08/16 13:53:38;;;;;;;1.80;1.17;;;16.00;53.90;;;;;;5033501;28;20307;-48
2021/08/16 13:56:09;;;;;;;1.90;1.25;;;16.00;54.00;;;;;;5033293;28;20630;-53
2021/08/16 13:58:39;;;;;;;2.58;0.95;;;16.00;54.00;;;;;;5032396;28;20283;-51
2021/08/16 14:01:10;;;;;;;2.17;1.20;;;16.00;54.10;;;;;;5033338;28;20243;-50
2021/08/16 14:03:40;;;;;;;2.58;1.10;;;16.00;54.10;;;;;;5033370;28;20242;-48
2021/08/16 14:06:11;;;;;;;3.10;1.45;;;16.00;54.10;;;;;;5033150;28;20251;-49